sensor_id;sensor_type;location;lat;lon;timestamp;P1;durP1;ratioP1;P2;durP2;ratioP2
68319;SDS011;55168;51.120;17.024;2022-08-02T00:00:00;6.4;;;5.5;;
68319;SDS011;55168;51.120;17.024;2022-08-02T00:01:00;6.4;;;5.5;;
68319;SDS011;55168;51.120;17.024;2022-08-02T00:02:00;6.1;;;5.5;;
68319;SDS011;55168;51.120;17.024;2022-08-02T00:03:00;6.1;;;5.5;;
68319;SDS011;55168;51.120;17.024;2022-08-02T00:04:00;6.1;;;5.5;;
68319;SDS011;55168;51.120;17.024;2022-08-02T00:05:00;6.1;;;5.5;;
68319;SDS011;55168;51.120;17.024;2022-08-02T00:06:00;6.1;;;5.5;;
68319;SDS011;55168;51.120;17.024;2022-08-02T00:07:00;5.8;;;5.2;;
68319;SDS011;55168;51.120;17.024;2022-08-02T00:08:00;5.8;;;5.2;;
68319;SDS011;55168;51.120;17.024;2022-08-02T00:09:00;5.8;;;5.2;;
68319;SDS011;55168;51.120;17.024;2022-08-02T00:10:00;5.8;;;5.2;;
68319;SDS011;55168;51.120;17.024;2022-08-02T00:11:00;5.8;;;5.2;;
68319;SDS011;55168;51.120;17.024;2022-08-02T00:12:00;6.0;;;5.4;;
68319;SDS011;55168;51.120;17.024;2022-08-02T00:13:00;6.0;;;5.4;;
68319;SDS011;55168;51.120;17.024;2022-08-02T00:14:00;6.0;;;5.4;;
68319;SDS011;55168;51.120;17.024;2022-08-02T00:15:00;6.0;;;5.4;;
68319;SDS011;55168;51.120;17.024;2022-08-02T00:16:00;6.0;;;5.4;;
68319;SDS011;55168;51.120;17.024;2022-08-02T00:17:00;6.2;;;5.5;;
68319;SDS011;55168;51.120;17.024;2022-08-02T00:18:00;6.2;;;5.5;;
68319;SDS011;55168;51.120;17.024;2022-08-02T00:19:00;6.2;;;5.5;;
68319;SDS011;55168;51.120;17.024;2022-08-02T00:20:00;6.2;;;5.5;;
68319;SDS011;55168;51.120;17.024;2022-08-02T00:21:00;6.2;;;5.5;;
68319;SDS011;55168;51.120;17.024;2022-08-02T00:22:00;6.3;;;5.7;;
68319;SDS011;55168;51.120;17.024;2022-08-02T00:23:00;6.3;;;5.7;;
68319;SDS011;55168;51.120;17.024;2022-08-02T00:24:00;6.3;;;5.7;;
68319;SDS011;55168;51.120;17.024;2022-08-02T00:25:00;6.3;;;5.7;;
68319;SDS011;55168;51.120;17.024;2022-08-02T00:26:00;6.3;;;5.7;;
68319;SDS011;55168;51.120;17.024;2022-08-02T00:27:00;6.3;;;5.7;;
68319;SDS011;55168;51.120;17.024;2022-08-02T00:28:00;6.3;;;5.7;;
68319;SDS011;55168;51.120;17.024;2022-08-02T00:29:00;6.3;;;5.7;;
68319;SDS011;55168;51.120;17.024;2022-08-02T00:30:00;6.3;;;5.7;;
68319;SDS011;55168;51.120;17.024;2022-08-02T00:31:00;6.3;;;5.7;;
68319;SDS011;55168;51.120;17.024;2022-08-02T00:32:00;6.2;;;5.6;;
68319;SDS011;55168;51.120;17.024;2022-08-02T00:33:00;6.2;;;5.6;;
68319;SDS011;55168;51.120;17.024;2022-08-02T00:34:00;6.2;;;5.6;;
68319;SDS011;55168;51.120;17.024;2022-08-02T00:35:00;6.2;;;5.6;;
68319;SDS011;55168;51.120;17.024;2022-08-02T00:36:00;6.2;;;5.6;;
68319;SDS011;55168;51.120;17.024;2022-08-02T00:37:00;6.2;;;5.5;;
68319;SDS011;55168;51.120;17.024;2022-08-02T00:38:01;6.2;;;5.5;;
68319;SDS011;55168;51.120;17.024;2022-08-02T00:39:00;6.2;;;5.5;;
68319;SDS011;55168;51.120;17.024;2022-08-02T00:40:00;6.2;;;5.5;;
68319;SDS011;55168;51.120;17.024;2022-08-02T00:41:00;6.2;;;5.5;;
68319;SDS011;55168;51.120;17.024;2022-08-02T00:42:00;7.1;;;5.4;;
68319;SDS011;55168;51.120;17.024;2022-08-02T00:43:03;7.1;;;5.4;;
68319;SDS011;55168;51.120;17.024;2022-08-02T00:44:00;7.1;;;5.4;;
68319;SDS011;55168;51.120;17.024;2022-08-02T00:45:00;7.1;;;5.4;;
68319;SDS011;55168;51.120;17.024;2022-08-02T00:46:00;7.1;;;5.4;;
68319;SDS011;55168;51.120;17.024;2022-08-02T00:47:00;5.8;;;5.3;;
68319;SDS011;55168;51.120;17.024;2022-08-02T00:48:00;5.8;;;5.3;;
68319;SDS011;55168;51.120;17.024;2022-08-02T00:49:00;5.8;;;5.3;;
68319;SDS011;55168;51.120;17.024;2022-08-02T00:50:00;5.8;;;5.3;;
68319;SDS011;55168;51.120;17.024;2022-08-02T00:51:00;5.8;;;5.3;;
68319;SDS011;55168;51.120;17.024;2022-08-02T00:52:00;5.6;;;5.0;;
68319;SDS011;55168;51.120;17.024;2022-08-02T00:53:00;5.6;;;5.0;;
68319;SDS011;55168;51.120;17.024;2022-08-02T00:54:00;5.6;;;5.0;;
68319;SDS011;55168;51.120;17.024;2022-08-02T00:55:00;5.6;;;5.0;;
68319;SDS011;55168;51.120;17.024;2022-08-02T00:56:00;5.6;;;5.0;;
68319;SDS011;55168;51.120;17.024;2022-08-02T00:57:00;5.5;;;5.0;;
68319;SDS011;55168;51.120;17.024;2022-08-02T00:58:00;5.5;;;5.0;;
68319;SDS011;55168;51.120;17.024;2022-08-02T00:59:00;5.5;;;5.0;;
68319;SDS011;55168;51.120;17.024;2022-08-02T01:00:00;5.5;;;5.0;;
68319;SDS011;55168;51.120;17.024;2022-08-02T01:01:00;5.5;;;5.0;;
68319;SDS011;55168;51.120;17.024;2022-08-02T01:02:00;5.5;;;5.0;;
68319;SDS011;55168;51.120;17.024;2022-08-02T01:03:00;5.5;;;5.0;;
68319;SDS011;55168;51.120;17.024;2022-08-02T01:04:00;5.5;;;5.0;;
68319;SDS011;55168;51.120;17.024;2022-08-02T01:05:00;5.5;;;5.0;;
68319;SDS011;55168;51.120;17.024;2022-08-02T01:06:00;5.5;;;5.0;;
68319;SDS011;55168;51.120;17.024;2022-08-02T01:07:00;5.7;;;5.2;;
68319;SDS011;55168;51.120;17.024;2022-08-02T01:08:01;5.7;;;5.2;;
68319;SDS011;55168;51.120;17.024;2022-08-02T01:09:01;5.7;;;5.2;;
68319;SDS011;55168;51.120;17.024;2022-08-02T01:10:00;5.7;;;5.2;;
68319;SDS011;55168;51.120;17.024;2022-08-02T01:11:00;5.7;;;5.2;;
68319;SDS011;55168;51.120;17.024;2022-08-02T01:12:00;5.2;;;4.8;;
68319;SDS011;55168;51.120;17.024;2022-08-02T01:13:00;5.2;;;4.8;;
68319;SDS011;55168;51.120;17.024;2022-08-02T01:14:09;5.2;;;4.8;;
68319;SDS011;55168;51.120;17.024;2022-08-02T01:15:02;5.2;;;4.8;;
68319;SDS011;55168;51.120;17.024;2022-08-02T01:16:05;5.2;;;4.8;;
68319;SDS011;55168;51.120;17.024;2022-08-02T01:17:11;4.9;;;4.5;;
68319;SDS011;55168;51.120;17.024;2022-08-02T01:18:04;4.9;;;4.5;;
68319;SDS011;55168;51.120;17.024;2022-08-02T01:19:09;4.9;;;4.5;;
68319;SDS011;55168;51.120;17.024;2022-08-02T01:20:23;4.9;;;4.5;;
68319;SDS011;55168;51.120;17.024;2022-08-02T01:21:13;4.9;;;4.5;;
68319;SDS011;55168;51.120;17.024;2022-08-02T01:22:12;5.1;;;4.6;;
68319;SDS011;55168;51.120;17.024;2022-08-02T01:24:03;5.1;;;4.6;;
68319;SDS011;55168;51.120;17.024;2022-08-02T01:25:11;5.1;;;4.6;;
68319;SDS011;55168;51.120;17.024;2022-08-02T01:26:23;5.1;;;4.6;;
68319;SDS011;55168;51.120;17.024;2022-08-02T01:29:05;5.2;;;4.8;;
68319;SDS011;55168;51.120;17.024;2022-08-02T01:30:01;5.2;;;4.8;;
68319;SDS011;55168;51.120;17.024;2022-08-02T01:31:09;5.2;;;4.8;;
68319;SDS011;55168;51.120;17.024;2022-08-02T01:32:09;4.9;;;4.5;;
68319;SDS011;55168;51.120;17.024;2022-08-02T01:33:02;4.9;;;4.5;;
68319;SDS011;55168;51.120;17.024;2022-08-02T01:34:09;4.9;;;4.5;;
68319;SDS011;55168;51.120;17.024;2022-08-02T01:35:06;4.9;;;4.5;;
68319;SDS011;55168;51.120;17.024;2022-08-02T01:36:01;4.9;;;4.5;;
68319;SDS011;55168;51.120;17.024;2022-08-02T01:37:11;5.2;;;4.7;;
68319;SDS011;55168;51.120;17.024;2022-08-02T01:38:11;5.2;;;4.7;;
68319;SDS011;55168;51.120;17.024;2022-08-02T01:39:01;5.2;;;4.7;;
68319;SDS011;55168;51.120;17.024;2022-08-02T01:40:05;5.2;;;4.7;;
68319;SDS011;55168;51.120;17.024;2022-08-02T01:41:01;5.2;;;4.7;;
68319;SDS011;55168;51.120;17.024;2022-08-02T01:42:01;5.5;;;5.0;;
68319;SDS011;55168;51.120;17.024;2022-08-02T01:43:00;5.5;;;5.0;;
68319;SDS011;55168;51.120;17.024;2022-08-02T01:44:02;5.5;;;5.0;;
68319;SDS011;55168;51.120;17.024;2022-08-02T01:45:01;5.5;;;5.0;;
68319;SDS011;55168;51.120;17.024;2022-08-02T01:46:00;5.5;;;5.0;;
68319;SDS011;55168;51.120;17.024;2022-08-02T01:47:03;5.3;;;4.8;;
68319;SDS011;55168;51.120;17.024;2022-08-02T01:48:00;5.3;;;4.8;;
68319;SDS011;55168;51.120;17.024;2022-08-02T01:49:03;5.3;;;4.8;;
68319;SDS011;55168;51.120;17.024;2022-08-02T01:50:01;5.3;;;4.8;;
68319;SDS011;55168;51.120;17.024;2022-08-02T01:51:02;5.3;;;4.8;;
68319;SDS011;55168;51.120;17.024;2022-08-02T01:52:00;5.4;;;4.9;;
68319;SDS011;55168;51.120;17.024;2022-08-02T01:53:04;5.4;;;4.9;;
68319;SDS011;55168;51.120;17.024;2022-08-02T01:54:00;5.4;;;4.9;;
68319;SDS011;55168;51.120;17.024;2022-08-02T01:55:10;5.4;;;4.9;;
68319;SDS011;55168;51.120;17.024;2022-08-02T01:56:00;5.4;;;4.9;;
68319;SDS011;55168;51.120;17.024;2022-08-02T01:57:01;5.4;;;4.9;;
68319;SDS011;55168;51.120;17.024;2022-08-02T01:58:03;5.4;;;4.9;;
68319;SDS011;55168;51.120;17.024;2022-08-02T01:59:01;5.4;;;4.9;;
68319;SDS011;55168;51.120;17.024;2022-08-02T02:00:01;5.4;;;4.9;;
68319;SDS011;55168;51.120;17.024;2022-08-02T02:01:00;5.4;;;4.9;;
68319;SDS011;55168;51.120;17.024;2022-08-02T02:02:00;5.6;;;5.1;;
68319;SDS011;55168;51.120;17.024;2022-08-02T02:03:01;5.6;;;5.1;;
68319;SDS011;55168;51.120;17.024;2022-08-02T02:04:00;5.6;;;5.1;;
68319;SDS011;55168;51.120;17.024;2022-08-02T02:05:01;5.6;;;5.1;;
68319;SDS011;55168;51.120;17.024;2022-08-02T02:06:01;5.6;;;5.1;;
68319;SDS011;55168;51.120;17.024;2022-08-02T02:07:01;5.6;;;5.1;;
68319;SDS011;55168;51.120;17.024;2022-08-02T02:08:00;5.6;;;5.1;;
68319;SDS011;55168;51.120;17.024;2022-08-02T02:09:01;5.6;;;5.1;;
68319;SDS011;55168;51.120;17.024;2022-08-02T02:10:02;5.6;;;5.1;;
68319;SDS011;55168;51.120;17.024;2022-08-02T02:11:01;5.6;;;5.1;;
68319;SDS011;55168;51.120;17.024;2022-08-02T02:12:00;5.4;;;5.0;;
68319;SDS011;55168;51.120;17.024;2022-08-02T02:13:03;5.4;;;5.0;;
68319;SDS011;55168;51.120;17.024;2022-08-02T02:14:01;5.4;;;5.0;;
68319;SDS011;55168;51.120;17.024;2022-08-02T02:15:01;5.4;;;5.0;;
68319;SDS011;55168;51.120;17.024;2022-08-02T02:16:02;5.4;;;5.0;;
68319;SDS011;55168;51.120;17.024;2022-08-02T02:17:01;5.8;;;5.3;;
68319;SDS011;55168;51.120;17.024;2022-08-02T02:18:01;5.8;;;5.3;;
68319;SDS011;55168;51.120;17.024;2022-08-02T02:19:01;5.8;;;5.3;;
68319;SDS011;55168;51.120;17.024;2022-08-02T02:20:01;5.8;;;5.3;;
68319;SDS011;55168;51.120;17.024;2022-08-02T02:21:00;5.8;;;5.3;;
68319;SDS011;55168;51.120;17.024;2022-08-02T02:22:00;6.6;;;5.2;;
68319;SDS011;55168;51.120;17.024;2022-08-02T02:23:00;6.6;;;5.2;;
68319;SDS011;55168;51.120;17.024;2022-08-02T02:24:00;6.6;;;5.2;;
68319;SDS011;55168;51.120;17.024;2022-08-02T02:25:00;6.6;;;5.2;;
68319;SDS011;55168;51.120;17.024;2022-08-02T02:26:02;6.6;;;5.2;;
68319;SDS011;55168;51.120;17.024;2022-08-02T02:27:02;5.8;;;5.2;;
68319;SDS011;55168;51.120;17.024;2022-08-02T02:28:02;5.8;;;5.2;;
68319;SDS011;55168;51.120;17.024;2022-08-02T02:29:01;5.8;;;5.2;;
68319;SDS011;55168;51.120;17.024;2022-08-02T02:30:02;5.8;;;5.2;;
68319;SDS011;55168;51.120;17.024;2022-08-02T02:31:05;5.8;;;5.2;;
68319;SDS011;55168;51.120;17.024;2022-08-02T02:32:00;5.7;;;5.2;;
68319;SDS011;55168;51.120;17.024;2022-08-02T02:33:01;5.7;;;5.2;;
68319;SDS011;55168;51.120;17.024;2022-08-02T02:34:02;5.7;;;5.2;;
68319;SDS011;55168;51.120;17.024;2022-08-02T02:35:02;5.7;;;5.2;;
68319;SDS011;55168;51.120;17.024;2022-08-02T02:36:00;5.7;;;5.2;;
68319;SDS011;55168;51.120;17.024;2022-08-02T02:37:03;5.9;;;5.4;;
68319;SDS011;55168;51.120;17.024;2022-08-02T02:38:01;5.9;;;5.4;;
68319;SDS011;55168;51.120;17.024;2022-08-02T02:39:02;5.9;;;5.4;;
68319;SDS011;55168;51.120;17.024;2022-08-02T02:40:01;5.9;;;5.4;;
68319;SDS011;55168;51.120;17.024;2022-08-02T02:41:02;5.9;;;5.4;;
68319;SDS011;55168;51.120;17.024;2022-08-02T02:42:02;6.0;;;5.4;;
68319;SDS011;55168;51.120;17.024;2022-08-02T02:43:00;6.0;;;5.4;;
68319;SDS011;55168;51.120;17.024;2022-08-02T02:44:01;6.0;;;5.4;;
68319;SDS011;55168;51.120;17.024;2022-08-02T02:45:02;6.0;;;5.4;;
68319;SDS011;55168;51.120;17.024;2022-08-02T02:46:02;6.0;;;5.4;;
68319;SDS011;55168;51.120;17.024;2022-08-02T02:47:00;5.9;;;5.3;;
68319;SDS011;55168;51.120;17.024;2022-08-02T02:48:00;5.9;;;5.3;;
68319;SDS011;55168;51.120;17.024;2022-08-02T02:49:00;5.9;;;5.3;;
68319;SDS011;55168;51.120;17.024;2022-08-02T02:50:00;5.9;;;5.3;;
68319;SDS011;55168;51.120;17.024;2022-08-02T02:51:02;5.9;;;5.3;;
68319;SDS011;55168;51.120;17.024;2022-08-02T02:52:01;6.4;;;5.9;;
68319;SDS011;55168;51.120;17.024;2022-08-02T02:53:00;6.4;;;5.9;;
68319;SDS011;55168;51.120;17.024;2022-08-02T02:54:00;6.4;;;5.9;;
68319;SDS011;55168;51.120;17.024;2022-08-02T02:55:00;6.4;;;5.9;;
68319;SDS011;55168;51.120;17.024;2022-08-02T02:56:00;6.4;;;5.9;;
68319;SDS011;55168;51.120;17.024;2022-08-02T02:57:00;6.5;;;5.9;;
68319;SDS011;55168;51.120;17.024;2022-08-02T02:58:00;6.5;;;5.9;;
68319;SDS011;55168;51.120;17.024;2022-08-02T02:59:00;6.5;;;5.9;;
68319;SDS011;55168;51.120;17.024;2022-08-02T03:00:00;6.5;;;5.9;;
68319;SDS011;55168;51.120;17.024;2022-08-02T03:01:00;6.5;;;5.9;;
68319;SDS011;55168;51.120;17.024;2022-08-02T03:02:01;6.6;;;6.0;;
68319;SDS011;55168;51.120;17.024;2022-08-02T03:03:00;6.6;;;6.0;;
68319;SDS011;55168;51.120;17.024;2022-08-02T03:04:02;6.6;;;6.0;;
68319;SDS011;55168;51.120;17.024;2022-08-02T03:05:01;6.6;;;6.0;;
68319;SDS011;55168;51.120;17.024;2022-08-02T03:06:00;6.6;;;6.0;;
68319;SDS011;55168;51.120;17.024;2022-08-02T03:07:00;6.3;;;5.8;;
68319;SDS011;55168;51.120;17.024;2022-08-02T03:08:00;6.3;;;5.8;;
68319;SDS011;55168;51.120;17.024;2022-08-02T03:09:00;6.3;;;5.8;;
68319;SDS011;55168;51.120;17.024;2022-08-02T03:10:03;6.3;;;5.8;;
68319;SDS011;55168;51.120;17.024;2022-08-02T03:11:00;6.3;;;5.8;;
68319;SDS011;55168;51.120;17.024;2022-08-02T03:12:00;6.5;;;5.9;;
68319;SDS011;55168;51.120;17.024;2022-08-02T03:13:00;6.5;;;5.9;;
68319;SDS011;55168;51.120;17.024;2022-08-02T03:14:02;6.5;;;5.9;;
68319;SDS011;55168;51.120;17.024;2022-08-02T03:15:02;6.5;;;5.9;;
68319;SDS011;55168;51.120;17.024;2022-08-02T03:16:00;6.5;;;5.9;;
68319;SDS011;55168;51.120;17.024;2022-08-02T03:17:00;6.4;;;5.8;;
68319;SDS011;55168;51.120;17.024;2022-08-02T03:18:00;6.4;;;5.8;;
68319;SDS011;55168;51.120;17.024;2022-08-02T03:19:01;6.4;;;5.8;;
68319;SDS011;55168;51.120;17.024;2022-08-02T03:20:00;6.4;;;5.8;;
68319;SDS011;55168;51.120;17.024;2022-08-02T03:21:02;6.4;;;5.8;;
68319;SDS011;55168;51.120;17.024;2022-08-02T03:22:00;6.4;;;5.8;;
68319;SDS011;55168;51.120;17.024;2022-08-02T03:23:00;6.4;;;5.8;;
68319;SDS011;55168;51.120;17.024;2022-08-02T03:24:00;6.4;;;5.8;;
68319;SDS011;55168;51.120;17.024;2022-08-02T03:25:00;6.4;;;5.8;;
68319;SDS011;55168;51.120;17.024;2022-08-02T03:26:00;6.4;;;5.8;;
68319;SDS011;55168;51.120;17.024;2022-08-02T03:27:00;6.7;;;6.0;;
68319;SDS011;55168;51.120;17.024;2022-08-02T03:28:00;6.7;;;6.0;;
68319;SDS011;55168;51.120;17.024;2022-08-02T03:29:00;6.7;;;6.0;;
68319;SDS011;55168;51.120;17.024;2022-08-02T03:30:00;6.7;;;6.0;;
68319;SDS011;55168;51.120;17.024;2022-08-02T03:31:00;6.7;;;6.0;;
68319;SDS011;55168;51.120;17.024;2022-08-02T03:32:00;7.1;;;6.5;;
68319;SDS011;55168;51.120;17.024;2022-08-02T03:33:00;7.1;;;6.5;;
68319;SDS011;55168;51.120;17.024;2022-08-02T03:34:01;7.1;;;6.5;;
68319;SDS011;55168;51.120;17.024;2022-08-02T03:35:00;7.1;;;6.5;;
68319;SDS011;55168;51.120;17.024;2022-08-02T03:36:04;7.1;;;6.5;;
68319;SDS011;55168;51.120;17.024;2022-08-02T03:37:01;7.2;;;6.6;;
68319;SDS011;55168;51.120;17.024;2022-08-02T03:38:00;7.2;;;6.6;;
68319;SDS011;55168;51.120;17.024;2022-08-02T03:39:00;7.2;;;6.6;;
68319;SDS011;55168;51.120;17.024;2022-08-02T03:40:00;7.2;;;6.6;;
68319;SDS011;55168;51.120;17.024;2022-08-02T03:41:01;7.2;;;6.6;;
68319;SDS011;55168;51.120;17.024;2022-08-02T03:42:00;8.1;;;6.5;;
68319;SDS011;55168;51.120;17.024;2022-08-02T03:43:00;8.1;;;6.5;;
68319;SDS011;55168;51.120;17.024;2022-08-02T03:44:00;8.1;;;6.5;;
68319;SDS011;55168;51.120;17.024;2022-08-02T03:45:01;8.1;;;6.5;;
68319;SDS011;55168;51.120;17.024;2022-08-02T03:46:00;8.1;;;6.5;;
68319;SDS011;55168;51.120;17.024;2022-08-02T03:47:00;7.8;;;6.9;;
68319;SDS011;55168;51.120;17.024;2022-08-02T03:48:00;7.8;;;6.9;;
68319;SDS011;55168;51.120;17.024;2022-08-02T03:49:01;7.8;;;6.9;;
68319;SDS011;55168;51.120;17.024;2022-08-02T03:50:00;7.8;;;6.9;;
68319;SDS011;55168;51.120;17.024;2022-08-02T03:51:00;7.8;;;6.9;;
68319;SDS011;55168;51.120;17.024;2022-08-02T03:52:00;7.7;;;7.0;;
68319;SDS011;55168;51.120;17.024;2022-08-02T03:53:00;7.7;;;7.0;;
68319;SDS011;55168;51.120;17.024;2022-08-02T03:54:00;7.7;;;7.0;;
68319;SDS011;55168;51.120;17.024;2022-08-02T03:55:00;7.7;;;7.0;;
68319;SDS011;55168;51.120;17.024;2022-08-02T03:56:00;7.7;;;7.0;;
68319;SDS011;55168;51.120;17.024;2022-08-02T03:57:00;8.1;;;7.3;;
68319;SDS011;55168;51.120;17.024;2022-08-02T03:58:00;8.1;;;7.3;;
68319;SDS011;55168;51.120;17.024;2022-08-02T03:59:09;8.1;;;7.3;;
68319;SDS011;55168;51.120;17.024;2022-08-02T04:00:00;8.1;;;7.3;;
68319;SDS011;55168;51.120;17.024;2022-08-02T04:01:00;8.1;;;7.3;;
68319;SDS011;55168;51.120;17.024;2022-08-02T04:02:00;8.2;;;7.1;;
68319;SDS011;55168;51.120;17.024;2022-08-02T04:03:00;8.2;;;7.1;;
68319;SDS011;55168;51.120;17.024;2022-08-02T04:04:00;8.2;;;7.1;;
68319;SDS011;55168;51.120;17.024;2022-08-02T04:05:00;8.2;;;7.1;;
68319;SDS011;55168;51.120;17.024;2022-08-02T04:06:00;8.2;;;7.1;;
68319;SDS011;55168;51.120;17.024;2022-08-02T04:07:00;7.9;;;7.2;;
68319;SDS011;55168;51.120;17.024;2022-08-02T04:08:00;7.9;;;7.2;;
68319;SDS011;55168;51.120;17.024;2022-08-02T04:09:00;7.9;;;7.2;;
68319;SDS011;55168;51.120;17.024;2022-08-02T04:10:00;7.9;;;7.2;;
68319;SDS011;55168;51.120;17.024;2022-08-02T04:11:00;7.9;;;7.2;;
68319;SDS011;55168;51.120;17.024;2022-08-02T04:12:00;7.7;;;7.0;;
68319;SDS011;55168;51.120;17.024;2022-08-02T04:13:00;7.7;;;7.0;;
68319;SDS011;55168;51.120;17.024;2022-08-02T04:14:05;7.7;;;7.0;;
68319;SDS011;55168;51.120;17.024;2022-08-02T04:15:01;7.7;;;7.0;;
68319;SDS011;55168;51.120;17.024;2022-08-02T04:16:08;7.6;;;6.9;;
68319;SDS011;55168;51.120;17.024;2022-08-02T04:17:04;7.6;;;6.9;;
68319;SDS011;55168;51.120;17.024;2022-08-02T04:18:01;7.6;;;6.9;;
68319;SDS011;55168;51.120;17.024;2022-08-02T04:19:01;7.6;;;6.9;;
68319;SDS011;55168;51.120;17.024;2022-08-02T04:20:04;7.6;;;6.9;;
68319;SDS011;55168;51.120;17.024;2022-08-02T04:21:01;7.6;;;6.9;;
68319;SDS011;55168;51.120;17.024;2022-08-02T04:22:01;8.6;;;7.5;;
68319;SDS011;55168;51.120;17.024;2022-08-02T04:23:03;8.6;;;7.5;;
68319;SDS011;55168;51.120;17.024;2022-08-02T04:24:02;8.6;;;7.5;;
68319;SDS011;55168;51.120;17.024;2022-08-02T04:25:02;8.6;;;7.5;;
68319;SDS011;55168;51.120;17.024;2022-08-02T04:26:01;8.6;;;7.5;;
68319;SDS011;55168;51.120;17.024;2022-08-02T04:27:00;8.0;;;7.3;;
68319;SDS011;55168;51.120;17.024;2022-08-02T04:28:01;8.0;;;7.3;;
68319;SDS011;55168;51.120;17.024;2022-08-02T04:29:00;8.0;;;7.3;;
68319;SDS011;55168;51.120;17.024;2022-08-02T04:30:00;8.0;;;7.3;;
68319;SDS011;55168;51.120;17.024;2022-08-02T04:31:01;8.0;;;7.3;;
68319;SDS011;55168;51.120;17.024;2022-08-02T04:32:01;9.1;;;8.1;;
68319;SDS011;55168;51.120;17.024;2022-08-02T04:33:00;9.1;;;8.1;;
68319;SDS011;55168;51.120;17.024;2022-08-02T04:34:00;9.1;;;8.1;;
68319;SDS011;55168;51.120;17.024;2022-08-02T04:35:00;9.1;;;8.1;;
68319;SDS011;55168;51.120;17.024;2022-08-02T04:36:00;9.1;;;8.1;;
68319;SDS011;55168;51.120;17.024;2022-08-02T04:37:00;8.4;;;7.6;;
68319;SDS011;55168;51.120;17.024;2022-08-02T04:38:00;8.4;;;7.6;;
68319;SDS011;55168;51.120;17.024;2022-08-02T04:39:00;8.4;;;7.6;;
68319;SDS011;55168;51.120;17.024;2022-08-02T04:40:00;8.4;;;7.6;;
68319;SDS011;55168;51.120;17.024;2022-08-02T04:41:00;8.4;;;7.6;;
68319;SDS011;55168;51.120;17.024;2022-08-02T04:42:00;7.8;;;7.1;;
68319;SDS011;55168;51.120;17.024;2022-08-02T04:43:00;7.8;;;7.1;;
68319;SDS011;55168;51.120;17.024;2022-08-02T04:44:00;7.8;;;7.1;;
68319;SDS011;55168;51.120;17.024;2022-08-02T04:45:00;7.8;;;7.1;;
68319;SDS011;55168;51.120;17.024;2022-08-02T04:46:00;7.8;;;7.1;;
68319;SDS011;55168;51.120;17.024;2022-08-02T04:47:01;8.1;;;7.4;;
68319;SDS011;55168;51.120;17.024;2022-08-02T04:48:00;8.1;;;7.4;;
68319;SDS011;55168;51.120;17.024;2022-08-02T04:49:00;8.1;;;7.4;;
68319;SDS011;55168;51.120;17.024;2022-08-02T04:50:00;8.1;;;7.4;;
68319;SDS011;55168;51.120;17.024;2022-08-02T04:51:00;8.1;;;7.4;;
68319;SDS011;55168;51.120;17.024;2022-08-02T04:52:00;7.1;;;6.5;;
68319;SDS011;55168;51.120;17.024;2022-08-02T04:53:00;7.1;;;6.5;;
68319;SDS011;55168;51.120;17.024;2022-08-02T04:54:00;7.1;;;6.5;;
68319;SDS011;55168;51.120;17.024;2022-08-02T04:55:00;7.1;;;6.5;;
68319;SDS011;55168;51.120;17.024;2022-08-02T04:56:00;7.1;;;6.5;;
68319;SDS011;55168;51.120;17.024;2022-08-02T04:57:00;6.8;;;6.2;;
68319;SDS011;55168;51.120;17.024;2022-08-02T04:58:00;6.8;;;6.2;;
68319;SDS011;55168;51.120;17.024;2022-08-02T04:59:00;6.8;;;6.2;;
68319;SDS011;55168;51.120;17.024;2022-08-02T05:00:00;6.8;;;6.2;;
68319;SDS011;55168;51.120;17.024;2022-08-02T05:01:00;6.8;;;6.2;;
68319;SDS011;55168;51.120;17.024;2022-08-02T05:02:00;7.2;;;6.5;;
68319;SDS011;55168;51.120;17.024;2022-08-02T05:03:00;7.2;;;6.5;;
68319;SDS011;55168;51.120;17.024;2022-08-02T05:04:00;7.2;;;6.5;;
68319;SDS011;55168;51.120;17.024;2022-08-02T05:05:00;7.2;;;6.5;;
68319;SDS011;55168;51.120;17.024;2022-08-02T05:06:00;7.2;;;6.5;;
68319;SDS011;55168;51.120;17.024;2022-08-02T05:07:00;7.1;;;6.4;;
68319;SDS011;55168;51.120;17.024;2022-08-02T05:08:00;7.1;;;6.4;;
68319;SDS011;55168;51.120;17.024;2022-08-02T05:09:00;7.1;;;6.4;;
68319;SDS011;55168;51.120;17.024;2022-08-02T05:10:00;7.1;;;6.4;;
68319;SDS011;55168;51.120;17.024;2022-08-02T05:11:00;7.1;;;6.4;;
68319;SDS011;55168;51.120;17.024;2022-08-02T05:12:00;6.7;;;6.0;;
68319;SDS011;55168;51.120;17.024;2022-08-02T05:13:02;6.7;;;6.0;;
68319;SDS011;55168;51.120;17.024;2022-08-02T05:14:00;6.7;;;6.0;;
68319;SDS011;55168;51.120;17.024;2022-08-02T05:15:00;6.7;;;6.0;;
68319;SDS011;55168;51.120;17.024;2022-08-02T05:16:00;6.7;;;6.0;;
68319;SDS011;55168;51.120;17.024;2022-08-02T05:17:00;6.5;;;5.7;;
68319;SDS011;55168;51.120;17.024;2022-08-02T05:18:00;6.5;;;5.7;;
68319;SDS011;55168;51.120;17.024;2022-08-02T05:19:00;6.5;;;5.7;;
68319;SDS011;55168;51.120;17.024;2022-08-02T05:20:00;6.5;;;5.7;;
68319;SDS011;55168;51.120;17.024;2022-08-02T05:21:00;6.5;;;5.7;;
68319;SDS011;55168;51.120;17.024;2022-08-02T05:22:00;6.6;;;6.0;;
68319;SDS011;55168;51.120;17.024;2022-08-02T05:23:00;6.6;;;6.0;;
68319;SDS011;55168;51.120;17.024;2022-08-02T05:24:00;6.6;;;6.0;;
68319;SDS011;55168;51.120;17.024;2022-08-02T05:25:00;6.6;;;6.0;;
68319;SDS011;55168;51.120;17.024;2022-08-02T05:26:00;6.6;;;6.0;;
68319;SDS011;55168;51.120;17.024;2022-08-02T05:27:00;6.7;;;6.0;;
68319;SDS011;55168;51.120;17.024;2022-08-02T05:28:00;6.7;;;6.0;;
68319;SDS011;55168;51.120;17.024;2022-08-02T05:29:00;6.7;;;6.0;;
68319;SDS011;55168;51.120;17.024;2022-08-02T05:30:00;6.7;;;6.0;;
68319;SDS011;55168;51.120;17.024;2022-08-02T05:31:00;6.7;;;6.0;;
68319;SDS011;55168;51.120;17.024;2022-08-02T05:32:00;6.2;;;5.5;;
68319;SDS011;55168;51.120;17.024;2022-08-02T05:33:00;6.2;;;5.5;;
68319;SDS011;55168;51.120;17.024;2022-08-02T05:34:00;6.2;;;5.5;;
68319;SDS011;55168;51.120;17.024;2022-08-02T05:35:00;6.2;;;5.5;;
68319;SDS011;55168;51.120;17.024;2022-08-02T05:36:00;6.2;;;5.5;;
68319;SDS011;55168;51.120;17.024;2022-08-02T05:37:00;6.0;;;5.4;;
68319;SDS011;55168;51.120;17.024;2022-08-02T05:38:00;6.0;;;5.4;;
68319;SDS011;55168;51.120;17.024;2022-08-02T05:39:00;6.0;;;5.4;;
68319;SDS011;55168;51.120;17.024;2022-08-02T05:40:00;6.0;;;5.4;;
68319;SDS011;55168;51.120;17.024;2022-08-02T05:41:00;6.0;;;5.4;;
68319;SDS011;55168;51.120;17.024;2022-08-02T05:42:00;5.7;;;5.2;;
68319;SDS011;55168;51.120;17.024;2022-08-02T05:43:00;5.7;;;5.2;;
68319;SDS011;55168;51.120;17.024;2022-08-02T05:44:00;5.7;;;5.2;;
68319;SDS011;55168;51.120;17.024;2022-08-02T05:45:00;5.7;;;5.2;;
68319;SDS011;55168;51.120;17.024;2022-08-02T05:46:00;5.7;;;5.2;;
68319;SDS011;55168;51.120;17.024;2022-08-02T05:47:00;6.2;;;5.6;;
68319;SDS011;55168;51.120;17.024;2022-08-02T05:48:00;6.2;;;5.6;;
68319;SDS011;55168;51.120;17.024;2022-08-02T05:49:00;6.2;;;5.6;;
68319;SDS011;55168;51.120;17.024;2022-08-02T05:50:00;6.2;;;5.6;;
68319;SDS011;55168;51.120;17.024;2022-08-02T05:51:05;6.2;;;5.6;;
68319;SDS011;55168;51.120;17.024;2022-08-02T05:52:08;5.2;;;4.8;;
68319;SDS011;55168;51.120;17.024;2022-08-02T05:53:03;5.2;;;4.8;;
68319;SDS011;55168;51.120;17.024;2022-08-02T05:55:05;5.2;;;4.8;;
68319;SDS011;55168;51.120;17.024;2022-08-02T05:56:06;5.2;;;4.8;;
68319;SDS011;55168;51.120;17.024;2022-08-02T05:57:04;5.3;;;4.8;;
68319;SDS011;55168;51.120;17.024;2022-08-02T05:58:17;5.3;;;4.8;;
68319;SDS011;55168;51.120;17.024;2022-08-02T05:59:06;5.3;;;4.8;;
68319;SDS011;55168;51.120;17.024;2022-08-02T06:00:08;5.3;;;4.8;;
68319;SDS011;55168;51.120;17.024;2022-08-02T06:01:01;5.3;;;4.8;;
68319;SDS011;55168;51.120;17.024;2022-08-02T06:02:03;6.0;;;5.0;;
68319;SDS011;55168;51.120;17.024;2022-08-02T06:03:03;6.0;;;5.0;;
68319;SDS011;55168;51.120;17.024;2022-08-02T06:04:00;6.0;;;5.0;;
68319;SDS011;55168;51.120;17.024;2022-08-02T06:05:05;6.0;;;5.0;;
68319;SDS011;55168;51.120;17.024;2022-08-02T06:06:10;7.0;;;5.0;;
68319;SDS011;55168;51.120;17.024;2022-08-02T06:07:00;7.0;;;5.0;;
68319;SDS011;55168;51.120;17.024;2022-08-02T06:08:00;7.0;;;5.0;;
68319;SDS011;55168;51.120;17.024;2022-08-02T06:09:06;7.0;;;5.0;;
68319;SDS011;55168;51.120;17.024;2022-08-02T06:10:00;7.0;;;5.0;;